sensor_id;sensor_type;location;lat;lon;timestamp;P1;durP1;ratioP1;P2;durP2;ratioP2
25263;SDS011;13211;51.796;5.808;2023-08-08T00:01:15;13.70;;;4.50;;
25263;SDS011;13211;51.796;5.808;2023-08-08T00:03:43;12.82;;;4.53;;
25263;SDS011;13211;51.796;5.808;2023-08-08T00:06:10;16.00;;;5.28;;
25263;SDS011;13211;51.796;5.808;2023-08-08T00:08:38;14.32;;;5.07;;
25263;SDS011;13211;51.796;5.808;2023-08-08T00:11:05;13.18;;;4.70;;
25263;SDS011;13211;51.796;5.808;2023-08-08T00:13:33;12.05;;;4.90;;
25263;SDS011;13211;51.796;5.808;2023-08-08T00:16:00;10.55;;;5.15;;
25263;SDS011;13211;51.796;5.808;2023-08-08T00:18:29;14.73;;;5.72;;
25263;SDS011;13211;51.796;5.808;2023-08-08T00:20:56;12.68;;;5.10;;
25263;SDS011;13211;51.796;5.808;2023-08-08T00:23:26;9.45;;;4.80;;
25263;SDS011;13211;51.796;5.808;2023-08-08T00:25:54;11.73;;;5.03;;
25263;SDS011;13211;51.796;5.808;2023-08-08T00:28:21;7.60;;;4.72;;
25263;SDS011;13211;51.796;5.808;2023-08-08T00:30:49;13.63;;;4.93;;
25263;SDS011;13211;51.796;5.808;2023-08-08T00:33:17;9.65;;;4.70;;
25263;SDS011;13211;51.796;5.808;2023-08-08T00:35:44;8.23;;;4.55;;
25263;SDS011;13211;51.796;5.808;2023-08-08T00:38:12;15.18;;;5.18;;
25263;SDS011;13211;51.796;5.808;2023-08-08T00:40:40;17.00;;;5.20;;
25263;SDS011;13211;51.796;5.808;2023-08-08T00:43:07;11.57;;;5.15;;
25263;SDS011;13211;51.796;5.808;2023-08-08T00:45:35;17.15;;;5.03;;
25263;SDS011;13211;51.796;5.808;2023-08-08T00:48:04;17.73;;;6.53;;
25263;SDS011;13211;51.796;5.808;2023-08-08T00:50:32;12.60;;;4.35;;
25263;SDS011;13211;51.796;5.808;2023-08-08T00:52:59;8.60;;;4.82;;
25263;SDS011;13211;51.796;5.808;2023-08-08T00:55:27;16.05;;;5.10;;
25263;SDS011;13211;51.796;5.808;2023-08-08T00:57:55;11.30;;;4.55;;
25263;SDS011;13211;51.796;5.808;2023-08-08T01:00:23;11.57;;;5.05;;
25263;SDS011;13211;51.796;5.808;2023-08-08T01:02:50;10.95;;;4.45;;
25263;SDS011;13211;51.796;5.808;2023-08-08T01:05:18;10.80;;;4.78;;
25263;SDS011;13211;51.796;5.808;2023-08-08T01:08:00;8.25;;;4.20;;
25263;SDS011;13211;51.796;5.808;2023-08-08T01:10:30;13.90;;;4.05;;
25263;SDS011;13211;51.796;5.808;2023-08-08T01:13:00;14.88;;;3.78;;
25263;SDS011;13211;51.796;5.808;2023-08-08T01:15:29;14.05;;;3.65;;
25263;SDS011;13211;51.796;5.808;2023-08-08T01:18:05;9.25;;;4.05;;
25263;SDS011;13211;51.796;5.808;2023-08-08T01:20:34;12.68;;;4.22;;
25263;SDS011;13211;51.796;5.808;2023-08-08T01:25:29;14.00;;;3.92;;
25263;SDS011;13211;51.796;5.808;2023-08-08T01:27:57;11.60;;;3.60;;
25263;SDS011;13211;51.796;5.808;2023-08-08T01:30:25;17.35;;;4.35;;
25263;SDS011;13211;51.796;5.808;2023-08-08T01:32:53;13.48;;;4.22;;
25263;SDS011;13211;51.796;5.808;2023-08-08T01:35:20;11.73;;;3.55;;
25263;SDS011;13211;51.796;5.808;2023-08-08T01:37:49;9.75;;;3.70;;
25263;SDS011;13211;51.796;5.808;2023-08-08T01:40:17;9.98;;;3.60;;
25263;SDS011;13211;51.796;5.808;2023-08-08T01:42:46;11.00;;;3.75;;
25263;SDS011;13211;51.796;5.808;2023-08-08T01:45:15;12.45;;;3.67;;
25263;SDS011;13211;51.796;5.808;2023-08-08T01:47:48;8.63;;;3.90;;
25263;SDS011;13211;51.796;5.808;2023-08-08T01:50:17;11.27;;;4.15;;
25263;SDS011;13211;51.796;5.808;2023-08-08T01:52:44;12.43;;;4.20;;
25263;SDS011;13211;51.796;5.808;2023-08-08T01:55:12;10.40;;;4.00;;
25263;SDS011;13211;51.796;5.808;2023-08-08T01:57:39;12.93;;;4.03;;
25263;SDS011;13211;51.796;5.808;2023-08-08T02:00:07;11.57;;;4.00;;
25263;SDS011;13211;51.796;5.808;2023-08-08T02:02:41;15.63;;;4.38;;
25263;SDS011;13211;51.796;5.808;2023-08-08T02:05:10;10.63;;;4.20;;
25263;SDS011;13211;51.796;5.808;2023-08-08T02:07:38;16.30;;;4.82;;
25263;SDS011;13211;51.796;5.808;2023-08-08T02:10:06;12.00;;;4.75;;
25263;SDS011;13211;51.796;5.808;2023-08-08T02:12:33;20.95;;;4.45;;
25263;SDS011;13211;51.796;5.808;2023-08-08T02:15:01;14.27;;;4.63;;
25263;SDS011;13211;51.796;5.808;2023-08-08T02:17:28;16.92;;;4.53;;
25263;SDS011;13211;51.796;5.808;2023-08-08T02:19:56;14.82;;;4.78;;
25263;SDS011;13211;51.796;5.808;2023-08-08T02:22:24;14.52;;;4.28;;
25263;SDS011;13211;51.796;5.808;2023-08-08T02:24:52;12.13;;;5.25;;
25263;SDS011;13211;51.796;5.808;2023-08-08T02:27:20;15.40;;;4.53;;
25263;SDS011;13211;51.796;5.808;2023-08-08T02:29:47;16.25;;;4.80;;
25263;SDS011;13211;51.796;5.808;2023-08-08T02:32:15;19.45;;;5.10;;
25263;SDS011;13211;51.796;5.808;2023-08-08T02:34:43;16.13;;;5.57;;
25263;SDS011;13211;51.796;5.808;2023-08-08T02:37:12;12.02;;;5.15;;
25263;SDS011;13211;51.796;5.808;2023-08-08T02:39:39;17.95;;;5.53;;
25263;SDS011;13211;51.796;5.808;2023-08-08T02:42:07;15.00;;;5.60;;
25263;SDS011;13211;51.796;5.808;2023-08-08T02:44:35;21.90;;;5.80;;
25263;SDS011;13211;51.796;5.808;2023-08-08T02:47:03;21.90;;;5.60;;
25263;SDS011;13211;51.796;5.808;2023-08-08T02:49:31;12.65;;;5.55;;
25263;SDS011;13211;51.796;5.808;2023-08-08T02:52:00;20.95;;;6.20;;
25263;SDS011;13211;51.796;5.808;2023-08-08T02:54:31;18.00;;;6.82;;
25263;SDS011;13211;51.796;5.808;2023-08-08T02:56:59;16.17;;;6.50;;
25263;SDS011;13211;51.796;5.808;2023-08-08T02:59:28;20.40;;;6.28;;
25263;SDS011;13211;51.796;5.808;2023-08-08T03:01:59;17.48;;;6.00;;
25263;SDS011;13211;51.796;5.808;2023-08-08T03:04:28;12.07;;;5.85;;
25263;SDS011;13211;51.796;5.808;2023-08-08T03:06:56;21.77;;;6.88;;
25263;SDS011;13211;51.796;5.808;2023-08-08T03:09:26;17.55;;;6.85;;
25263;SDS011;13211;51.796;5.808;2023-08-08T03:11:53;21.27;;;6.90;;
25263;SDS011;13211;51.796;5.808;2023-08-08T03:14:21;22.10;;;7.70;;
25263;SDS011;13211;51.796;5.808;2023-08-08T03:16:49;16.73;;;7.15;;
25263;SDS011;13211;51.796;5.808;2023-08-08T03:19:17;18.80;;;6.85;;
25263;SDS011;13211;51.796;5.808;2023-08-08T03:21:46;17.52;;;6.63;;
25263;SDS011;13211;51.796;5.808;2023-08-08T03:24:13;16.80;;;7.70;;
25263;SDS011;13211;51.796;5.808;2023-08-08T03:26:42;19.42;;;7.20;;
25263;SDS011;13211;51.796;5.808;2023-08-08T03:29:10;18.00;;;7.70;;
25263;SDS011;13211;51.796;5.808;2023-08-08T03:31:44;21.75;;;7.10;;
25263;SDS011;13211;51.796;5.808;2023-08-08T03:34:11;23.27;;;7.30;;
25263;SDS011;13211;51.796;5.808;2023-08-08T03:36:40;24.88;;;7.53;;
25263;SDS011;13211;51.796;5.808;2023-08-08T03:39:09;17.75;;;7.70;;
25263;SDS011;13211;51.796;5.808;2023-08-08T03:41:37;20.92;;;8.40;;
25263;SDS011;13211;51.796;5.808;2023-08-08T03:44:04;18.95;;;8.10;;
25263;SDS011;13211;51.796;5.808;2023-08-08T03:46:33;20.40;;;7.68;;
25263;SDS011;13211;51.796;5.808;2023-08-08T03:49:01;21.13;;;8.02;;
25263;SDS011;13211;51.796;5.808;2023-08-08T03:51:29;25.40;;;8.63;;
25263;SDS011;13211;51.796;5.808;2023-08-08T03:53:57;21.05;;;8.70;;
25263;SDS011;13211;51.796;5.808;2023-08-08T03:56:25;21.63;;;9.30;;
25263;SDS011;13211;51.796;5.808;2023-08-08T03:58:54;29.63;;;9.30;;
25263;SDS011;13211;51.796;5.808;2023-08-08T04:01:21;21.63;;;9.48;;
25263;SDS011;13211;51.796;5.808;2023-08-08T04:03:49;21.73;;;9.00;;
25263;SDS011;13211;51.796;5.808;2023-08-08T04:06:17;23.80;;;9.93;;
25263;SDS011;13211;51.796;5.808;2023-08-08T04:08:45;26.25;;;9.10;;
25263;SDS011;13211;51.796;5.808;2023-08-08T04:11:12;18.27;;;9.52;;
25263;SDS011;13211;51.796;5.808;2023-08-08T04:13:40;37.08;;;10.02;;
25263;SDS011;13211;51.796;5.808;2023-08-08T04:16:07;26.42;;;10.05;;
25263;SDS011;13211;51.796;5.808;2023-08-08T04:18:35;25.08;;;10.23;;
25263;SDS011;13211;51.796;5.808;2023-08-08T04:21:02;30.45;;;10.70;;
25263;SDS011;13211;51.796;5.808;2023-08-08T04:23:30;28.85;;;11.02;;
25263;SDS011;13211;51.796;5.808;2023-08-08T04:25:57;32.00;;;11.45;;
25263;SDS011;13211;51.796;5.808;2023-08-08T04:28:25;30.23;;;11.82;;
25263;SDS011;13211;51.796;5.808;2023-08-08T04:30:52;40.25;;;12.10;;
25263;SDS011;13211;51.796;5.808;2023-08-08T04:33:20;49.95;;;13.40;;
25263;SDS011;13211;51.796;5.808;2023-08-08T04:35:47;31.13;;;11.80;;
25263;SDS011;13211;51.796;5.808;2023-08-08T04:38:15;30.15;;;12.00;;
25263;SDS011;13211;51.796;5.808;2023-08-08T04:40:42;41.88;;;13.35;;
25263;SDS011;13211;51.796;5.808;2023-08-08T04:43:10;36.17;;;12.27;;
25263;SDS011;13211;51.796;5.808;2023-08-08T04:45:38;39.78;;;14.13;;
25263;SDS011;13211;51.796;5.808;2023-08-08T04:48:05;32.88;;;13.18;;
25263;SDS011;13211;51.796;5.808;2023-08-08T04:50:33;34.03;;;13.20;;
25263;SDS011;13211;51.796;5.808;2023-08-08T04:53:01;36.00;;;12.38;;
25263;SDS011;13211;51.796;5.808;2023-08-08T04:55:28;37.63;;;12.60;;
25263;SDS011;13211;51.796;5.808;2023-08-08T04:57:56;31.10;;;12.55;;
25263;SDS011;13211;51.796;5.808;2023-08-08T05:00:25;35.92;;;12.80;;
25263;SDS011;13211;51.796;5.808;2023-08-08T05:02:53;42.15;;;14.82;;
25263;SDS011;13211;51.796;5.808;2023-08-08T05:05:21;38.60;;;13.40;;
25263;SDS011;13211;51.796;5.808;2023-08-08T05:07:48;31.92;;;12.65;;
25263;SDS011;13211;51.796;5.808;2023-08-08T05:10:16;34.45;;;12.90;;
25263;SDS011;13211;51.796;5.808;2023-08-08T05:12:44;37.95;;;12.90;;
25263;SDS011;13211;51.796;5.808;2023-08-08T05:15:11;36.10;;;12.80;;
25263;SDS011;13211;51.796;5.808;2023-08-08T05:17:39;32.08;;;13.10;;
25263;SDS011;13211;51.796;5.808;2023-08-08T05:20:07;33.22;;;12.77;;
25263;SDS011;13211;51.796;5.808;2023-08-08T05:22:36;40.08;;;14.15;;
25263;SDS011;13211;51.796;5.808;2023-08-08T05:25:04;44.03;;;14.00;;
25263;SDS011;13211;51.796;5.808;2023-08-08T05:27:31;37.13;;;13.98;;
25263;SDS011;13211;51.796;5.808;2023-08-08T05:29:59;39.30;;;13.68;;
25263;SDS011;13211;51.796;5.808;2023-08-08T05:32:27;37.90;;;12.98;;
25263;SDS011;13211;51.796;5.808;2023-08-08T05:34:54;31.65;;;12.93;;
25263;SDS011;13211;51.796;5.808;2023-08-08T05:37:24;26.15;;;12.75;;
25263;SDS011;13211;51.796;5.808;2023-08-08T05:39:51;31.23;;;12.40;;
25263;SDS011;13211;51.796;5.808;2023-08-08T05:42:19;38.20;;;12.80;;
25263;SDS011;13211;51.796;5.808;2023-08-08T05:44:47;37.95;;;12.65;;
25263;SDS011;13211;51.796;5.808;2023-08-08T05:47:14;35.60;;;12.45;;
25263;SDS011;13211;51.796;5.808;2023-08-08T05:49:42;29.10;;;12.30;;
25263;SDS011;13211;51.796;5.808;2023-08-08T05:52:09;27.88;;;11.27;;
25263;SDS011;13211;51.796;5.808;2023-08-08T05:54:37;27.48;;;11.40;;
25263;SDS011;13211;51.796;5.808;2023-08-08T05:57:05;30.80;;;11.60;;
25263;SDS011;13211;51.796;5.808;2023-08-08T05:59:33;29.08;;;11.32;;
25263;SDS011;13211;51.796;5.808;2023-08-08T06:02:01;27.70;;;10.65;;
25263;SDS011;13211;51.796;5.808;2023-08-08T06:04:29;26.88;;;10.60;;
25263;SDS011;13211;51.796;5.808;2023-08-08T06:06:56;29.27;;;10.60;;
25263;SDS011;13211;51.796;5.808;2023-08-08T06:09:24;37.33;;;10.80;;
25263;SDS011;13211;51.796;5.808;2023-08-08T06:11:52;26.00;;;9.77;;
25263;SDS011;13211;51.796;5.808;2023-08-08T06:14:20;32.22;;;9.98;;
25263;SDS011;13211;51.796;5.808;2023-08-08T06:16:47;27.33;;;9.85;;
25263;SDS011;13211;51.796;5.808;2023-08-08T06:19:15;27.40;;;10.02;;
25263;SDS011;13211;51.796;5.808;2023-08-08T06:21:43;30.38;;;8.77;;
25263;SDS011;13211;51.796;5.808;2023-08-08T06:24:11;18.23;;;8.73;;
25263;SDS011;13211;51.796;5.808;2023-08-08T06:26:39;27.02;;;8.80;;
25263;SDS011;13211;51.796;5.808;2023-08-08T06:29:06;22.73;;;9.25;;
25263;SDS011;13211;51.796;5.808;2023-08-08T06:31:34;25.90;;;8.02;;
25263;SDS011;13211;51.796;5.808;2023-08-08T06:34:02;27.38;;;8.48;;
25263;SDS011;13211;51.796;5.808;2023-08-08T06:36:29;20.08;;;8.50;;
25263;SDS011;13211;51.796;5.808;2023-08-08T06:39:01;25.55;;;8.32;;
25263;SDS011;13211;51.796;5.808;2023-08-08T06:41:29;20.48;;;7.97;;
25263;SDS011;13211;51.796;5.808;2023-08-08T06:43:57;24.15;;;7.70;;
25263;SDS011;13211;51.796;5.808;2023-08-08T06:46:25;21.05;;;7.28;;
25263;SDS011;13211;51.796;5.808;2023-08-08T06:48:52;21.40;;;6.55;;
25263;SDS011;13211;51.796;5.808;2023-08-08T06:51:26;19.10;;;6.47;;
25263;SDS011;13211;51.796;5.808;2023-08-08T06:53:54;20.08;;;6.82;;
25263;SDS011;13211;51.796;5.808;2023-08-08T06:56:22;17.88;;;5.97;;
25263;SDS011;13211;51.796;5.808;2023-08-08T06:58:50;19.05;;;5.97;;
25263;SDS011;13211;51.796;5.808;2023-08-08T07:01:18;15.35;;;6.03;;
25263;SDS011;13211;51.796;5.808;2023-08-08T07:03:46;14.50;;;5.97;;
25263;SDS011;13211;51.796;5.808;2023-08-08T07:06:15;24.40;;;5.38;;
25263;SDS011;13211;51.796;5.808;2023-08-08T07:08:43;14.40;;;5.78;;
25263;SDS011;13211;51.796;5.808;2023-08-08T07:11:11;14.85;;;5.07;;
25263;SDS011;13211;51.796;5.808;2023-08-08T07:13:39;16.90;;;5.72;;
25263;SDS011;13211;51.796;5.808;2023-08-08T07:16:07;14.15;;;5.60;;
25263;SDS011;13211;51.796;5.808;2023-08-08T07:18:34;22.10;;;5.45;;
25263;SDS011;13211;51.796;5.808;2023-08-08T07:21:03;12.88;;;4.80;;
25263;SDS011;13211;51.796;5.808;2023-08-08T07:23:32;17.48;;;5.32;;
25263;SDS011;13211;51.796;5.808;2023-08-08T07:26:00;19.30;;;5.20;;
25263;SDS011;13211;51.796;5.808;2023-08-08T07:28:28;13.25;;;4.53;;
25263;SDS011;13211;51.796;5.808;2023-08-08T07:30:55;15.30;;;4.95;;
25263;SDS011;13211;51.796;5.808;2023-08-08T07:33:23;12.68;;;5.03;;
25263;SDS011;13211;51.796;5.808;2023-08-08T07:35:51;15.23;;;4.38;;
25263;SDS011;13211;51.796;5.808;2023-08-08T07:38:18;12.55;;;4.30;;
25263;SDS011;13211;51.796;5.808;2023-08-08T07:40:46;12.98;;;4.75;;
25263;SDS011;13211;51.796;5.808;2023-08-08T07:43:15;14.32;;;4.25;;
25263;SDS011;13211;51.796;5.808;2023-08-08T07:45:47;25.77;;;4.68;;
25263;SDS011;13211;51.796;5.808;2023-08-08T07:48:15;12.43;;;3.45;;
25263;SDS011;13211;51.796;5.808;2023-08-08T07:50:42;11.35;;;3.13;;
25263;SDS011;13211;51.796;5.808;2023-08-08T07:53:10;8.35;;;3.00;;
25263;SDS011;13211;51.796;5.808;2023-08-08T07:55:37;9.63;;;2.90;;
25263;SDS011;13211;51.796;5.808;2023-08-08T07:58:05;8.18;;;2.83;;
25263;SDS011;13211;51.796;5.808;2023-08-08T08:00:33;9.02;;;2.60;;
25263;SDS011;13211;51.796;5.808;2023-08-08T08:03:00;12.38;;;2.70;;
25263;SDS011;13211;51.796;5.808;2023-08-08T08:05:28;7.90;;;2.60;;
25263;SDS011;13211;51.796;5.808;2023-08-08T08:07:56;5.80;;;1.80;;
25263;SDS011;13211;51.796;5.808;2023-08-08T08:10:24;5.25;;;1.80;;
25263;SDS011;13211;51.796;5.808;2023-08-08T08:12:51;6.47;;;1.90;;
25263;SDS011;13211;51.796;5.808;2023-08-08T08:15:25;10.45;;;2.35;;
25263;SDS011;13211;51.796;5.808;2023-08-08T08:17:53;5.50;;;1.90;;
25263;SDS011;13211;51.796;5.808;2023-08-08T08:20:21;5.75;;;1.90;;
25263;SDS011;13211;51.796;5.808;2023-08-08T08:22:48;9.90;;;1.67;;
25263;SDS011;13211;51.796;5.808;2023-08-08T08:25:16;5.85;;;1.20;;
25263;SDS011;13211;51.796;5.808;2023-08-08T08:27:43;4.13;;;1.40;;
25263;SDS011;13211;51.796;5.808;2023-08-08T08:30:11;6.57;;;1.58;;
25263;SDS011;13211;51.796;5.808;2023-08-08T08:32:39;5.55;;;1.55;;
25263;SDS011;13211;51.796;5.808;2023-08-08T08:35:07;7.38;;;1.40;;
25263;SDS011;13211;51.796;5.808;2023-08-08T08:37:35;6.28;;;1.58;;
25263;SDS011;13211;51.796;5.808;2023-08-08T08:40:03;8.23;;;1.65;;
25263;SDS011;13211;51.796;5.808;2023-08-08T08:42:31;10.77;;;1.27;;
25263;SDS011;13211;51.796;5.808;2023-08-08T08:45:03;6.60;;;1.52;;
25263;SDS011;13211;51.796;5.808;2023-08-08T08:47:31;7.43;;;1.50;;
25263;SDS011;13211;51.796;5.808;2023-08-08T08:50:00;9.15;;;1.58;;
25263;SDS011;13211;51.796;5.808;2023-08-08T08:52:30;6.85;;;1.95;;
25263;SDS011;13211;51.796;5.808;2023-08-08T08:54:58;10.65;;;1.85;;
25263;SDS011;13211;51.796;5.808;2023-08-08T08:57:25;9.00;;;1.65;;
25263;SDS011;13211;51.796;5.808;2023-08-08T08:59:53;5.30;;;1.52;;
25263;SDS011;13211;51.796;5.808;2023-08-08T09:02:21;5.10;;;1.10;;
25263;SDS011;13211;51.796;5.808;2023-08-08T09:04:49;4.55;;;1.20;;
25263;SDS011;13211;51.796;5.808;2023-08-08T09:07:18;2.70;;;1.00;;
25263;SDS011;13211;51.796;5.808;2023-08-08T09:09:46;5.30;;;0.90;;
25263;SDS011;13211;51.796;5.808;2023-08-08T09:12:14;3.10;;;0.65;;
25263;SDS011;13211;51.796;5.808;2023-08-08T09:14:42;5.78;;;1.15;;
25263;SDS011;13211;51.796;5.808;2023-08-08T09:17:13;6.15;;;1.00;;
25263;SDS011;13211;51.796;5.808;2023-08-08T09:19:44;2.60;;;0.70;;
25263;SDS011;13211;51.796;5.808;2023-08-08T09:22:13;4.10;;;0.90;;
25263;SDS011;13211;51.796;5.808;2023-08-08T09:24:41;2.65;;;0.60;;
25263;SDS011;13211;51.796;5.808;2023-08-08T09:27:08;3.17;;;0.82;;
25263;SDS011;13211;51.796;5.808;2023-08-08T09:29:36;4.45;;;0.90;;
25263;SDS011;13211;51.796;5.808;2023-08-08T09:32:05;5.50;;;0.85;;
25263;SDS011;13211;51.796;5.808;2023-08-08T09:34:33;3.05;;;0.70;;
25263;SDS011;13211;51.796;5.808;2023-08-08T09:37:01;4.13;;;0.70;;
25263;SDS011;13211;51.796;5.808;2023-08-08T09:39:29;2.42;;;0.70;;
25263;SDS011;13211;51.796;5.808;2023-08-08T09:41:58;6.05;;;0.70;;
25263;SDS011;13211;51.796;5.808;2023-08-08T09:44:26;5.07;;;0.70;;
25263;SDS011;13211;51.796;5.808;2023-08-08T09:46:56;2.35;;;0.70;;
25263;SDS011;13211;51.796;5.808;2023-08-08T09:49:24;5.30;;;0.90;;
25263;SDS011;13211;51.796;5.808;2023-08-08T09:51:52;2.78;;;0.73;;
25263;SDS011;13211;51.796;5.808;2023-08-08T09:54:21;4.53;;;0.70;;
25263;SDS011;13211;51.796;5.808;2023-08-08T09:56:49;2.70;;;0.50;;
25263;SDS011;13211;51.796;5.808;2023-08-08T09:59:17;7.00;;;1.23;;
25263;SDS011;13211;51.796;5.808;2023-08-08T10:01:45;3.08;;;0.60;;
25263;SDS011;13211;51.796;5.808;2023-08-08T10:04:14;3.05;;;0.85;;
25263;SDS011;13211;51.796;5.808;2023-08-08T10:06:41;5.45;;;0.70;;
25263;SDS011;13211;51.796;5.808;2023-08-08T10:09:09;10.65;;;0.90;;
25263;SDS011;13211;51.796;5.808;2023-08-08T10:11:38;5.40;;;0.93;;
25263;SDS011;13211;51.796;5.808;2023-08-08T10:14:08;2.58;;;0.80;;
25263;SDS011;13211;51.796;5.808;2023-08-08T10:16:37;4.38;;;0.90;;
25263;SDS011;13211;51.796;5.808;2023-08-08T10:19:05;4.40;;;0.70;;
25263;SDS011;13211;51.796;5.808;2023-08-08T10:21:35;1.58;;;0.70;;
25263;SDS011;13211;51.796;5.808;2023-08-08T10:24:03;1.98;;;0.70;;
25263;SDS011;13211;51.796;5.808;2023-08-08T10:26:31;3.80;;;0.95;;
25263;SDS011;13211;51.796;5.808;2023-08-08T10:28:59;2.83;;;0.82;;
25263;SDS011;13211;51.796;5.808;2023-08-08T10:31:27;3.33;;;0.80;;
25263;SDS011;13211;51.796;5.808;2023-08-08T10:34:02;5.43;;;0.80;;
25263;SDS011;13211;51.796;5.808;2023-08-08T10:36:43;2.60;;;0.80;;
25263;SDS011;13211;51.796;5.808;2023-08-08T10:39:11;4.80;;;0.80;;
25263;SDS011;13211;51.796;5.808;2023-08-08T10:41:44;5.43;;;1.00;;
25263;SDS011;13211;51.796;5.808;2023-08-08T10:44:12;7.80;;;1.48;;
25263;SDS011;13211;51.796;5.808;2023-08-08T10:46:41;7.53;;;1.05;;
25263;SDS011;13211;51.796;5.808;2023-08-08T10:49:10;1.80;;;0.60;;
25263;SDS011;13211;51.796;5.808;2023-08-08T10:51:42;3.95;;;0.70;;
25263;SDS011;13211;51.796;5.808;2023-08-08T10:54:13;6.82;;;1.02;;
25263;SDS011;13211;51.796;5.808;2023-08-08T10:56:47;2.22;;;0.82;;
25263;SDS011;13211;51.796;5.808;2023-08-08T10:59:15;2.30;;;0.70;;
25263;SDS011;13211;51.796;5.808;2023-08-08T11:01:47;2.00;;;0.68;;
25263;SDS011;13211;51.796;5.808;2023-08-08T11:04:17;1.73;;;0.80;;
25263;SDS011;13211;51.796;5.808;2023-08-08T11:06:45;2.45;;;0.90;;
25263;SDS011;13211;51.796;5.808;2023-08-08T11:09:14;6.18;;;1.08;;
25263;SDS011;13211;51.796;5.808;2023-08-08T11:11:42;4.65;;;0.90;;
25263;SDS011;13211;51.796;5.808;2023-08-08T11:14:11;3.20;;;1.25;;
25263;SDS011;13211;51.796;5.808;2023-08-08T11:16:39;3.60;;;1.05;;
25263;SDS011;13211;51.796;5.808;2023-08-08T11:19:07;5.25;;;0.93;;
25263;SDS011;13211;51.796;5.808;2023-08-08T11:21:36;5.25;;;1.30;;
25263;SDS011;13211;51.796;5.808;2023-08-08T11:24:04;4.75;;;0.98;;
25263;SDS011;13211;51.796;5.808;2023-08-08T11:26:33;3.55;;;1.35;;
25263;SDS011;13211;51.796;5.808;2023-08-08T11:29:02;3.78;;;0.90;;
25263;SDS011;13211;51.796;5.808;2023-08-08T11:31:30;5.25;;;0.80;;
25263;SDS011;13211;51.796;5.808;2023-08-08T11:33:58;3.78;;;1.08;;
25263;SDS011;13211;51.796;5.808;2023-08-08T11:36:28;6.88;;;0.90;;
25263;SDS011;13211;51.796;5.808;2023-08-08T11:38:57;3.25;;;0.75;;
25263;SDS011;13211;51.796;5.808;2023-08-08T11:41:25;5.25;;;0.73;;
25263;SDS011;13211;51.796;5.808;2023-08-08T11:43:53;2.78;;;1.00;;
25263;SDS011;13211;51.796;5.808;2023-08-08T11:46:22;2.55;;;0.75;;
25263;SDS011;13211;51.796;5.808;2023-08-08T11:48:51;3.92;;;0.98;;
25263;SDS011;13211;51.796;5.808;2023-08-08T11:51:19;2.97;;;0.75;;
25263;SDS011;13211;51.796;5.808;2023-08-08T11:53:53;4.35;;;0.90;;
25263;SDS011;13211;51.796;5.808;2023-08-08T11:56:21;3.13;;;0.90;;
25263;SDS011;13211;51.796;5.808;2023-08-08T11:58:49;3.58;;;0.80;;
25263;SDS011;13211;51.796;5.808;2023-08-08T12:01:22;4.07;;;1.13;;
25263;SDS011;13211;51.796;5.808;2023-08-08T12:03:50;3.70;;;0.85;;
25263;SDS011;13211;51.796;5.808;2023-08-08T12:06:21;2.80;;;0.90;;
25263;SDS011;13211;51.796;5.808;2023-08-08T12:08:48;4.60;;;1.23;;
25263;SDS011;13211;51.796;5.808;2023-08-08T12:11:17;11.13;;;1.50;;
25263;SDS011;13211;51.796;5.808;2023-08-08T12:13:51;2.72;;;0.68;;
25263;SDS011;13211;51.796;5.808;2023-08-08T12:16:29;2.45;;;0.60;;
25263;SDS011;13211;51.796;5.808;2023-08-08T12:19:02;1.58;;;0.68;;
25263;SDS011;13211;51.796;5.808;2023-08-08T12:21:29;4.32;;;0.70;;
25263;SDS011;13211;51.796;5.808;2023-08-08T12:26:28;2.90;;;0.70;;
25263;SDS011;13211;51.796;5.808;2023-08-08T12:28:56;3.40;;;0.77;;
25263;SDS011;13211;51.796;5.808;2023-08-08T12:31:24;2.28;;;0.65;;
25263;SDS011;13211;51.796;5.808;2023-08-08T12:33:52;3.15;;;0.60;;
25263;SDS011;13211;51.796;5.808;2023-08-08T12:36:21;4.97;;;0.90;;
25263;SDS011;13211;51.796;5.808;2023-08-08T12:38:48;3.42;;;0.70;;
25263;SDS011;13211;51.796;5.808;2023-08-08T12:41:16;3.53;;;0.65;;
25263;SDS011;13211;51.796;5.808;2023-08-08T12:43:44;1.75;;;0.60;;
25263;SDS011;13211;51.796;5.808;2023-08-08T12:46:12;3.38;;;0.50;;
25263;SDS011;13211;51.796;5.808;2023-08-08T12:48:39;2.25;;;0.50;;
25263;SDS011;13211;51.796;5.808;2023-08-08T12:51:07;1.35;;;0.55;;
25263;SDS011;13211;51.796;5.808;2023-08-08T12:53:35;4.40;;;0.63;;
25263;SDS011;13211;51.796;5.808;2023-08-08T12:56:03;1.80;;;0.43;;
25263;SDS011;13211;51.796;5.808;2023-08-08T12:58:31;2.38;;;0.50;;
25263;SDS011;13211;51.796;5.808;2023-08-08T13:00:59;2.35;;;0.50;;
25263;SDS011;13211;51.796;5.808;2023-08-08T13:03:27;2.72;;;0.60;;
25263;SDS011;13211;51.796;5.808;2023-08-08T13:05:54;1.92;;;0.90;;
25263;SDS011;13211;51.796;5.808;2023-08-08T13:08:22;2.17;;;0.57;;
25263;SDS011;13211;51.796;5.808;2023-08-08T13:10:50;3.42;;;0.70;;
25263;SDS011;13211;51.796;5.808;2023-08-08T13:13:18;3.15;;;0.70;;
25263;SDS011;13211;51.796;5.808;2023-08-08T13:15:46;3.33;;;0.60;;
25263;SDS011;13211;51.796;5.808;2023-08-08T13:18:13;2.42;;;0.50;;
25263;SDS011;13211;51.796;5.808;2023-08-08T13:20:43;2.35;;;0.50;;
25263;SDS011;13211;51.796;5.808;2023-08-08T13:23:12;3.15;;;0.60;;
25263;SDS011;13211;51.796;5.808;2023-08-08T13:25:40;4.78;;;0.90;;
25263;SDS011;13211;51.796;5.808;2023-08-08T13:28:07;1.42;;;0.63;;
25263;SDS011;13211;51.796;5.808;2023-08-08T13:30:35;4.38;;;0.73;;
25263;SDS011;13211;51.796;5.808;2023-08-08T13:33:03;2.00;;;0.70;;
25263;SDS011;13211;51.796;5.808;2023-08-08T13:35:31;3.17;;;0.80;;
25263;SDS011;13211;51.796;5.808;2023-08-08T13:37:59;5.65;;;0.57;;
25263;SDS011;13211;51.796;5.808;2023-08-08T13:40:26;1.55;;;0.50;;
25263;SDS011;13211;51.796;5.808;2023-08-08T13:42:54;3.45;;;0.65;;
25263;SDS011;13211;51.796;5.808;2023-08-08T13:45:22;2.15;;;0.90;;
25263;SDS011;13211;51.796;5.808;2023-08-08T13:47:49;1.70;;;0.57;;
25263;SDS011;13211;51.796;5.808;2023-08-08T13:50:17;4.57;;;0.70;;
25263;SDS011;13211;51.796;5.808;2023-08-08T13:52:45;1.80;;;0.50;;
25263;SDS011;13211;51.796;5.808;2023-08-08T13:55:12;4.13;;;0.70;;
25263;SDS011;13211;51.796;5.808;2023-08-08T13:57:41;0.93;;;0.40;;
25263;SDS011;13211;51.796;5.808;2023-08-08T14:00:11;2.22;;;0.70;;
25263;SDS011;13211;51.796;5.808;2023-08-08T14:02:39;2.28;;;0.70;;
25263;SDS011;13211;51.796;5.808;2023-08-08T14:05:07;7.75;;;0.82;;
25263;SDS011;13211;51.796;5.808;2023-08-08T14:07:35;2.58;;;0.80;;
25263;SDS011;13211;51.796;5.808;2023-08-08T14:10:03;2.30;;;0.60;;
25263;SDS011;13211;51.796;5.808;2023-08-08T14:12:30;2.47;;;0.80;;
25263;SDS011;13211;51.796;5.808;2023-08-08T14:14:58;2.47;;;0.70;;
25263;SDS011;13211;51.796;5.808;2023-08-08T14:17:25;1.35;;;0.65;;
25263;SDS011;13211;51.796;5.808;2023-08-08T14:19:53;3.15;;;0.80;;
25263;SDS011;13211;51.796;5.808;2023-08-08T14:22:21;3.17;;;0.65;;
25263;SDS011;13211;51.796;5.808;2023-08-08T14:24:48;1.88;;;0.75;;
25263;SDS011;13211;51.796;5.808;2023-08-08T14:27:16;4.65;;;0.90;;
25263;SDS011;13211;51.796;5.808;2023-08-08T14:29:44;3.45;;;1.17;;
25263;SDS011;13211;51.796;5.808;2023-08-08T14:32:11;5.03;;;1.00;;
25263;SDS011;13211;51.796;5.808;2023-08-08T14:34:39;1.45;;;0.80;;
25263;SDS011;13211;51.796;5.808;2023-08-08T14:37:10;5.80;;;1.45;;
25263;SDS011;13211;51.796;5.808;2023-08-08T14:39:38;7.15;;;0.80;;
25263;SDS011;13211;51.796;5.808;2023-08-08T14:42:06;3.53;;;0.80;;
25263;SDS011;13211;51.796;5.808;2023-08-08T14:44:35;3.40;;;0.80;;
25263;SDS011;13211;51.796;5.808;2023-08-08T14:47:02;2.65;;;0.73;;
25263;SDS011;13211;51.796;5.808;2023-08-08T14:49:31;1.40;;;0.70;;